KAUG/AUG METAR and TAF weather

Enter ICAO airport designator
Station Type Date Time Source
KAUG METAR 2019/08/19 11:53 UTC NOAA

KAUG 191153Z AUTO 15003KT M1/4SM FG VV002 18/18 A2996 RMK AO2 SLP145 60003 70003 T01830183 10183 20178 58002


Station Type Date Time Source
KAUG Decoded METAR 2019/08/19 11:53 UTC NOAA

Station name not available
Aug 19, 2019 - 07:53 AM EDT / 2019.08.19 1153 UTC
Wind: from the SSE (150 degrees) at 3 MPH (3 KT):0
Visibility: less than 1/4 mile(s):1
Sky conditions: obscured
Weather: fog
Temperature: 64.9 F (18.3 C)
Dew Point: 64.9 F (18.3 C)
Relative Humidity: 100%
Pressure (altimeter): 29.96 in. Hg (1014 hPa)
Pressure tendency: 0.01 inches (0.2 hPa) lower than three hours ago
ob: KAUG 191153Z AUTO 15003KT M1/4SM FG VV002 18/18 A2996 RMK AO2 SLP145 60003 70003 T01830183 10183 20178 58002
cycle: 12

Station Type Date Time Source
KAUG TAF 2019/08/19 12:24 UTC NOAA

TAF KAUG 191123Z 1912/2012 00000KT 1/4SM FG OVC001
FM191400 18004KT P6SM OVC012
FM191800 20007KT P6SM VCTS SCT050CB BKN200
FM200000 VRB03KT P6SM SKC

Example: see airport list